Time;durP1;ratioP1;P1;durP2;ratioP2;P2;SDS_P1;SDS_P2;PMS_P1;PMS_P2;Temp;Humidity;BMP_temperature;BMP_pressure;BME280_temperature;BME280_humidity;BME280_pressure;Samples;Min_cycle;Max_cycle;Signal;HPM_P1;HPM_P2
2023/07/17 00:01:06;;;;;;;3.90;2.87;;;;;;;24.61;48.34;97641.91;5010964;28;20329;-71
2023/07/17 00:03:31;;;;;;;12.43;3.40;;;;;;;24.50;48.52;97635.47;5021513;28;20455;-70
2023/07/17 00:06:00;;;;;;;8.27;3.57;;;;;;;24.45;48.34;97654.94;5019072;28;20591;-72
2023/07/17 00:08:25;;;;;;;9.13;4.20;;;;;;;24.45;48.64;97648.75;5025375;28;20525;-72
2023/07/17 00:10:51;;;;;;;6.90;3.70;;;;;;;24.49;48.96;97652.59;5010575;28;20431;-71
2023/07/17 00:13:16;;;;;;;4.73;3.90;;;;;;;24.57;48.65;97649.59;5026703;28;20206;-70
2023/07/17 00:15:42;;;;;;;4.53;3.50;;;;;;;24.64;48.28;97649.44;5010701;28;20708;-71
2023/07/17 00:18:07;;;;;;;8.00;3.47;;;;;;;24.62;48.40;97655.06;5010531;28;20185;-71
2023/07/17 00:20:32;;;;;;;5.80;3.00;;;;;;;24.50;48.78;97646.19;5015520;28;20195;-70
2023/07/17 00:22:58;;;;;;;9.03;4.53;;;;;;;24.48;48.54;97645.59;5011860;28;20215;-71
2023/07/17 00:25:24;;;;;;;5.27;3.40;;;;;;;24.44;48.84;97639.09;5012984;28;20223;-71
2023/07/17 00:27:49;;;;;;;4.77;3.20;;;;;;;24.37;49.08;97634.66;5012023;28;20258;-70
2023/07/17 00:30:15;;;;;;;8.67;3.50;;;;;;;24.35;48.91;97635.94;5013332;28;20180;-70
2023/07/17 00:32:40;;;;;;;4.20;3.27;;;;;;;24.29;49.31;97628.81;5013981;28;20261;-72
2023/07/17 00:35:07;;;;;;;4.77;3.50;;;;;;;24.22;49.06;97634.28;5013100;28;20195;-70
2023/07/17 00:37:32;;;;;;;5.17;3.33;;;;;;;24.23;49.21;97638.59;5015757;28;20335;-72
2023/07/17 00:39:58;;;;;;;5.93;3.43;;;;;;;24.20;49.33;97642.56;4993627;28;20855;-71
2023/07/17 00:42:23;;;;;;;5.50;3.60;;;;;;;24.20;49.60;97644.41;5020164;28;20291;-71
2023/07/17 00:44:49;;;;;;;5.67;3.80;;;;;;;24.19;49.27;97638.25;5018353;28;20267;-72
2023/07/17 00:47:14;;;;;;;7.30;3.67;;;;;;;24.18;49.50;97635.81;4993236;28;20272;-70
2023/07/17 00:49:40;;;;;;;3.93;3.20;;;;;;;24.18;49.54;97633.13;5009600;28;20191;-70
2023/07/17 00:52:08;;;;;;;6.30;3.43;;;;;;;24.20;49.86;97634.50;5008069;28;20219;-71
2023/07/17 00:54:34;;;;;;;5.57;3.40;;;;;;;24.25;49.61;97635.69;5009998;28;20415;-72
2023/07/17 00:57:02;;;;;;;6.97;3.90;;;;;;;24.20;49.79;97645.22;5013891;28;20506;-71
2023/07/17 00:59:27;;;;;;;3.67;3.00;;;;;;;24.20;49.57;97641.72;5017688;28;20798;-71
2023/07/17 01:01:53;;;;;;;6.30;3.33;;;;;;;24.22;50.15;97642.31;5010761;28;20441;-72
2023/07/17 01:04:18;;;;;;;3.10;2.50;;;;;;;24.26;49.90;97648.03;5009484;28;20193;-72
2023/07/17 01:06:44;;;;;;;3.73;3.30;;;;;;;24.26;50.10;97638.13;5011523;28;20240;-70
2023/07/17 01:09:10;;;;;;;4.70;3.53;;;;;;;24.31;49.47;97632.91;5007557;28;20660;-70
2023/07/17 01:11:36;;;;;;;3.43;3.10;;;;;;;24.32;49.51;97633.72;5013532;28;20885;-69
2023/07/17 01:14:01;;;;;;;6.43;3.13;;;;;;;24.27;49.87;97644.28;5013275;28;20423;-70
2023/07/17 01:16:27;;;;;;;6.10;3.50;;;;;;;24.23;49.87;97649.28;5010659;28;20180;-70
2023/07/17 01:18:53;;;;;;;5.20;3.43;;;;;;;24.20;49.72;97655.09;5011298;28;20554;-72
2023/07/17 01:21:21;;;;;;;3.60;3.30;;;;;;;24.16;49.86;97657.44;5015395;28;20219;-69
2023/07/17 01:23:46;;;;;;;5.33;2.93;;;;;;;24.20;50.25;97665.81;5004744;28;20223;-70
2023/07/17 01:26:13;;;;;;;3.50;2.80;;;;;;;24.26;49.73;97659.56;5009308;28;20809;-72
2023/07/17 01:28:39;;;;;;;7.53;3.33;;;;;;;24.30;49.04;97660.75;5009326;28;20192;-72
2023/07/17 01:31:05;;;;;;;5.40;2.90;;;;;;;24.21;49.44;97657.56;5010691;28;20506;-70
2023/07/17 01:33:30;;;;;;;7.73;3.10;;;;;;;24.21;49.77;97656.75;5017173;28;20200;-70
2023/07/17 01:35:56;;;;;;;6.47;3.33;;;;;;;24.20;50.38;97652.44;5010768;28;20442;-70
2023/07/17 01:38:21;;;;;;;7.40;2.90;;;;;;;24.16;50.55;97654.75;5010702;28;20259;-71
2023/07/17 01:40:47;;;;;;;5.10;3.50;;;;;;;24.21;50.63;97651.38;5012471;28;20275;-70
2023/07/17 01:43:12;;;;;;;6.80;3.20;;;;;;;24.24;50.41;97658.97;5013048;28;20205;-70
2023/07/17 01:45:37;;;;;;;4.47;3.57;;;;;;;24.22;50.88;97648.50;5011350;28;20675;-72
2023/07/17 01:48:03;;;;;;;12.50;3.30;;;;;;;24.23;50.71;97649.28;5010339;28;20279;-70
2023/07/17 01:50:28;;;;;;;4.60;3.20;;;;;;;24.21;50.95;97657.56;5014340;28;20187;-72
2023/07/17 01:52:54;;;;;;;10.67;3.40;;;;;;;24.14;51.40;97661.38;5009992;28;20575;-71
2023/07/17 01:55:19;;;;;;;5.07;3.20;;;;;;;24.10;51.79;97661.03;5013866;28;20265;-70
2023/07/17 01:57:45;;;;;;;14.57;3.03;;;;;;;24.08;52.53;97665.81;5006250;28;20271;-70
2023/07/17 02:00:12;;;;;;;3.70;2.90;;;;;;;24.07;52.33;97664.97;5009689;28;20276;-71
2023/07/17 02:02:38;;;;;;;3.90;3.20;;;;;;;24.05;52.16;97659.06;5011783;28;20224;-69
2023/07/17 02:05:03;;;;;;;5.00;3.73;;;;;;;24.08;52.40;97652.41;5010218;28;20450;-73
2023/07/17 02:07:29;;;;;;;5.10;3.27;;;;;;;24.12;52.30;97652.78;5007981;28;20623;-69
2023/07/17 02:09:54;;;;;;;4.07;3.07;;;;;;;24.09;52.20;97654.06;5010195;28;20223;-70
2023/07/17 02:12:20;;;;;;;3.90;3.07;;;;;;;24.02;52.37;97659.50;5012042;28;20283;-70
2023/07/17 02:14:45;;;;;;;4.40;2.70;;;;;;;23.99;52.61;97659.94;5009591;28;20188;-72
2023/07/17 02:17:11;;;;;;;4.20;3.13;;;;;;;23.98;52.59;97657.50;5012773;28;20238;-71
2023/07/17 02:19:36;;;;;;;6.20;3.30;;;;;;;23.99;52.71;97670.66;5016216;28;20253;-70
2023/07/17 02:22:02;;;;;;;3.70;2.73;;;;;;;24.03;52.94;97666.50;5013939;28;20200;-69
2023/07/17 02:24:27;;;;;;;4.47;3.23;;;;;;;24.04;53.00;97662.78;5008860;28;20710;-70
2023/07/17 02:26:53;;;;;;;5.70;2.87;;;;;;;24.05;53.18;97664.41;5011047;28;20279;-70
2023/07/17 02:29:19;;;;;;;6.20;3.20;;;;;;;24.02;53.33;97678.25;5012788;28;20184;-72
2023/07/17 02:31:45;;;;;;;7.53;3.00;;;;;;;23.97;53.65;97672.75;5009371;28;20442;-70
2023/07/17 02:34:10;;;;;;;5.07;3.37;;;;;;;23.97;53.88;97667.38;5009319;28;20496;-72
2023/07/17 02:36:37;;;;;;;8.87;4.33;;;;;;;24.00;54.09;97672.28;5009630;28;20227;-70
2023/07/17 02:39:04;;;;;;;7.70;3.00;;;;;;;23.96;53.92;97673.78;5009673;28;20691;-70
2023/07/17 02:41:29;;;;;;;5.50;3.10;;;;;;;23.98;53.85;97673.56;5008945;28;20908;-69
2023/07/17 02:43:55;;;;;;;6.30;3.00;;;;;;;23.95;53.79;97674.00;5015613;28;20454;-72
2023/07/17 02:46:20;;;;;;;4.07;3.30;;;;;;;23.89;54.36;97675.72;5012037;28;20188;-69
2023/07/17 02:48:46;;;;;;;5.50;2.80;;;;;;;23.87;54.22;97673.28;5011692;28;20188;-70
2023/07/17 02:51:12;;;;;;;6.20;3.20;;;;;;;23.89;54.57;97673.84;5008763;28;20190;-71
2023/07/17 02:53:37;;;;;;;5.37;2.97;;;;;;;23.93;54.34;97690.28;5012866;28;20226;-72
2023/07/17 02:56:03;;;;;;;5.00;3.13;;;;;;;23.90;54.40;97685.38;5018429;28;20184;-71
2023/07/17 02:58:28;;;;;;;5.00;2.57;;;;;;;23.87;54.37;97685.81;5008647;28;20193;-71
2023/07/17 03:00:54;;;;;;;5.37;3.10;;;;;;;23.87;54.41;97693.84;5009730;28;20195;-71
2023/07/17 03:03:19;;;;;;;5.10;2.83;;;;;;;23.80;54.65;97695.81;5005936;28;20208;-71
2023/07/17 03:05:45;;;;;;;5.53;3.10;;;;;;;23.81;54.57;97695.56;5007183;28;20554;-71
2023/07/17 03:08:10;;;;;;;4.47;2.87;;;;;;;23.85;54.77;97699.44;5002840;28;20177;-72
2023/07/17 03:10:36;;;;;;;5.83;2.80;;;;;;;23.81;54.58;97697.44;4998866;28;20192;-75
2023/07/17 03:13:01;;;;;;;5.03;3.27;;;;;;;23.83;54.61;97695.34;5009103;28;20199;-70
2023/07/17 03:15:26;;;;;;;6.10;3.10;;;;;;;23.80;54.64;97703.84;5002804;28;20519;-70
2023/07/17 03:17:52;;;;;;;16.57;2.93;;;;;;;23.78;54.94;97704.03;5010681;28;20623;-72
2023/07/17 03:20:18;;;;;;;4.43;2.80;;;;;;;23.77;54.85;97713.13;5006544;28;20236;-70
2023/07/17 03:22:44;;;;;;;5.83;2.90;;;;;;;23.76;54.76;97719.50;5010706;28;20665;-71
2023/07/17 03:25:09;;;;;;;6.70;2.80;;;;;;;23.76;54.76;97717.66;5008058;28;20469;-70
2023/07/17 03:27:36;;;;;;;4.73;2.80;;;;;;;23.73;54.54;97726.13;5002050;28;20204;-72
2023/07/17 03:30:02;;;;;;;8.60;3.20;;;;;;;23.69;54.80;97724.13;5008527;28;20215;-69
2023/07/17 03:32:32;;;;;;;3.20;2.67;;;;;;;23.65;54.75;97720.25;5006363;28;20470;-71
2023/07/17 03:34:57;;;;;;;8.23;2.73;;;;;;;23.68;54.57;97719.81;5004596;28;20180;-70
2023/07/17 03:37:23;;;;;;;5.00;2.53;;;;;;;23.68;54.37;97709.94;5013473;28;20418;-70
2023/07/17 03:39:48;;;;;;;7.60;3.30;;;;;;;23.69;54.22;97708.88;5006358;28;20181;-70
2023/07/17 03:42:14;;;;;;;4.60;2.80;;;;;;;23.67;53.85;97719.03;5007338;28;20234;-71
2023/07/17 03:44:40;;;;;;;3.30;2.70;;;;;;;23.69;54.29;97716.91;5004486;28;20191;-72
2023/07/17 03:47:06;;;;;;;3.00;2.70;;;;;;;23.72;53.61;97713.00;5008121;28;20185;-72
2023/07/17 03:49:32;;;;;;;4.20;2.77;;;;;;;23.72;53.28;97713.78;5007547;28;20554;-72
2023/07/17 03:52:00;;;;;;;10.53;2.80;;;;;;;23.69;53.15;97706.22;5007709;28;20522;-70
2023/07/17 03:54:26;;;;;;;4.90;2.33;;;;;;;23.69;53.40;97710.75;4998310;28;20213;-71
2023/07/17 03:56:52;;;;;;;3.70;2.60;;;;;;;23.67;53.96;97716.34;5007805;28;20924;-72
2023/07/17 03:59:22;;;;;;;2.90;2.47;;;;;;;23.65;54.28;97720.25;5008588;28;20424;-71
2023/07/17 04:01:48;;;;;;;8.63;2.60;;;;;;;23.63;54.36;97723.16;5007309;28;20748;-70
2023/07/17 04:04:13;;;;;;;9.70;3.30;;;;;;;23.62;54.29;97730.41;5009516;28;20459;-69
2023/07/17 04:06:39;;;;;;;4.70;2.60;;;;;;;23.58;54.44;97734.53;5007219;28;20667;-72
2023/07/17 04:09:04;;;;;;;5.57;2.90;;;;;;;23.52;55.01;97734.63;5008803;28;20275;-70
2023/07/17 04:11:30;;;;;;;5.97;3.17;;;;;;;23.54;55.07;97735.22;5010510;28;20275;-71
2023/07/17 04:13:55;;;;;;;4.43;2.93;;;;;;;23.54;54.64;97733.34;5007153;28;20204;-71
2023/07/17 04:16:21;;;;;;;4.67;3.43;;;;;;;23.52;54.62;97740.78;5024291;28;20287;-70
2023/07/17 04:18:47;;;;;;;4.63;2.60;;;;;;;23.49;54.69;97735.91;5001965;28;20184;-71
2023/07/17 04:21:12;;;;;;;6.40;2.90;;;;;;;23.45;54.78;97735.50;5009800;28;20434;-72
2023/07/17 04:23:38;;;;;;;6.07;3.37;;;;;;;23.43;54.57;97740.28;5010148;28;20212;-71
2023/07/17 04:26:03;;;;;;;6.00;3.30;;;;;;;23.41;54.83;97744.19;5004546;28;20203;-69
2023/07/17 04:28:29;;;;;;;11.60;3.20;;;;;;;23.40;54.99;97743.38;5005221;28;20199;-70
2023/07/17 04:30:54;;;;;;;5.70;3.27;;;;;;;23.41;55.33;97745.03;5004388;28;20189;-70
2023/07/17 04:33:19;;;;;;;6.83;3.57;;;;;;;23.41;54.91;97750.38;5000304;28;20196;-71
2023/07/17 04:35:45;;;;;;;4.03;2.93;;;;;;;23.43;55.08;97763.50;5007486;28;20276;-71
2023/07/17 04:38:10;;;;;;;6.63;2.97;;;;;;;23.43;54.88;97761.66;5008865;28;20840;-70
2023/07/17 04:40:36;;;;;;;5.83;3.50;;;;;;;23.46;54.73;97757.72;5003161;28;20454;-71
2023/07/17 04:43:01;;;;;;;6.70;3.30;;;;;;;23.46;55.03;97755.84;5006794;28;20218;-70
2023/07/17 04:45:27;;;;;;;8.37;3.93;;;;;;;23.51;55.03;97757.06;5007163;28;20194;-70
2023/07/17 04:47:53;;;;;;;5.70;3.17;;;;;;;23.54;54.85;97764.66;5008751;28;20261;-72
2023/07/17 04:50:18;;;;;;;7.40;3.30;;;;;;;23.52;55.18;97761.38;5009671;28;20184;-72
2023/07/17 04:52:44;;;;;;;5.80;3.10;;;;;;;23.57;55.22;97758.81;5011843;28;20201;-70
2023/07/17 04:55:09;;;;;;;5.20;3.13;;;;;;;23.62;54.95;97750.97;5014841;28;20720;-70
2023/07/17 04:57:35;;;;;;;6.13;2.80;;;;;;;23.65;54.48;97753.19;5015420;28;20281;-70
2023/07/17 05:00:00;;;;;;;4.20;2.80;;;;;;;23.74;54.22;97759.88;5005728;28;20179;-70
2023/07/17 05:02:25;;;;;;;5.33;3.07;;;;;;;23.81;53.90;97753.63;5010198;28;20887;-70
2023/07/17 05:04:51;;;;;;;8.30;3.23;;;;;;;23.86;53.52;97748.41;5013307;28;20271;-72
2023/07/17 05:07:16;;;;;;;6.50;3.27;;;;;;;23.93;53.62;97755.31;5012589;28;20326;-70
2023/07/17 05:09:42;;;;;;;5.50;3.30;;;;;;;24.01;53.29;97754.22;5008183;28;20271;-71
2023/07/17 05:12:07;;;;;;;5.43;3.20;;;;;;;24.07;53.34;97745.28;5005019;28;20300;-73
2023/07/17 05:14:33;;;;;;;4.90;3.20;;;;;;;24.12;53.17;97766.03;5010233;28;20261;-72
2023/07/17 05:16:58;;;;;;;4.60;3.10;;;;;;;24.13;52.53;97756.94;5011209;28;20208;-72
2023/07/17 05:19:24;;;;;;;8.00;3.13;;;;;;;24.14;52.51;97766.59;5006087;28;20276;-73
2023/07/17 05:21:49;;;;;;;6.17;3.10;;;;;;;24.16;52.13;97775.22;5010057;28;20208;-71
2023/07/17 05:24:14;;;;;;;7.93;3.30;;;;;;;24.19;51.67;97774.78;5010005;28;20295;-71
2023/07/17 05:26:40;;;;;;;5.50;3.10;;;;;;;24.18;51.34;97767.78;5008434;28;20279;-74
2023/07/17 05:29:05;;;;;;;6.57;3.10;;;;;;;24.22;51.06;97766.31;5004766;28;20259;-70
2023/07/17 05:31:31;;;;;;;6.50;3.10;;;;;;;24.17;49.15;97773.38;5013623;28;20199;-71
2023/07/17 05:33:56;;;;;;;7.83;2.70;;;;;;;24.18;49.57;97777.72;5015663;28;20204;-71
2023/07/17 05:36:22;;;;;;;9.00;3.10;;;;;;;24.22;48.93;97771.66;5009025;28;20780;-69
2023/07/17 05:38:48;;;;;;;7.33;2.80;;;;;;;24.23;48.50;97772.47;5010325;28;20188;-70
2023/07/17 05:41:13;;;;;;;5.83;3.07;;;;;;;24.19;47.86;97774.00;5012067;28;20184;-73
2023/07/17 05:43:39;;;;;;;5.90;2.70;;;;;;;24.15;48.38;97772.78;5012767;28;20216;-71
2023/07/17 05:46:04;;;;;;;4.37;2.67;;;;;;;24.24;48.78;97771.44;5016087;28;20184;-71
2023/07/17 05:48:29;;;;;;;6.10;2.80;;;;;;;24.22;48.11;97778.88;5009805;28;20266;-72
2023/07/17 05:50:55;;;;;;;7.30;3.37;;;;;;;24.18;48.22;97781.19;5010251;28;20234;-71
2023/07/17 05:53:20;;;;;;;9.00;2.83;;;;;;;24.12;47.79;97781.28;5009565;28;20736;-71
2023/07/17 05:55:46;;;;;;;3.80;2.73;;;;;;;24.12;47.78;97782.09;5011930;28;20553;-71
2023/07/17 05:58:12;;;;;;;4.53;2.67;;;;;;;24.21;47.63;97779.91;5010044;28;20195;-70
2023/07/17 06:00:38;;;;;;;5.60;2.97;;;;;;;24.21;46.99;97786.09;5008674;28;20415;-71
2023/07/17 06:03:03;;;;;;;10.07;2.97;;;;;;;24.32;47.52;97789.84;5017879;28;20208;-70
2023/07/17 06:05:29;;;;;;;8.50;3.10;;;;;;;24.44;47.15;97789.09;5010591;28;20197;-69
2023/07/17 06:07:54;;;;;;;4.13;2.80;;;;;;;24.49;46.51;97795.41;5017597;28;20218;-71
2023/07/17 06:10:20;;;;;;;3.30;2.50;;;;;;;24.65;46.02;97796.59;5014393;28;20259;-70
2023/07/17 06:12:45;;;;;;;18.13;3.27;;;;;;;24.68;45.80;97798.84;5009596;28;20270;-70
2023/07/17 06:15:13;;;;;;;4.73;2.87;;;;;;;24.86;45.51;97799.81;5008708;28;20713;-70
2023/07/17 06:17:39;;;;;;;6.00;2.80;;;;;;;25.02;45.56;97809.03;5010013;28;20184;-73
2023/07/17 06:20:10;;;;;;;8.50;3.40;;;;;;;25.05;44.99;97791.69;5009183;28;20522;-72
2023/07/17 06:22:36;;;;;;;7.03;3.23;;;;;;;25.27;44.66;97808.00;5008682;28;20290;-71
2023/07/17 06:25:02;;;;;;;3.83;2.80;;;;;;;25.45;44.01;97804.44;5011079;28;20944;-70
2023/07/17 06:27:27;;;;;;;3.30;3.00;;;;;;;25.58;43.77;97793.44;5010577;28;20559;-70
2023/07/17 06:29:53;;;;;;;5.07;2.80;;;;;;;25.77;43.53;97798.69;5011019;28;20196;-70
2023/07/17 06:32:18;;;;;;;6.23;2.90;;;;;;;25.95;42.79;97804.97;5009167;28;20208;-70
2023/07/17 06:34:44;;;;;;;6.57;2.70;;;;;;;25.94;41.72;97801.44;5008504;28;20185;-70
2023/07/17 06:37:09;;;;;;;4.10;2.80;;;;;;;25.92;40.92;97804.38;5012594;28;20694;-70
2023/07/17 06:39:34;;;;;;;10.93;3.30;;;;;;;26.12;40.85;97813.91;5016214;28;20553;-71
2023/07/17 06:42:00;;;;;;;9.80;3.00;;;;;;;26.29;40.70;97805.91;5011799;28;20231;-71
2023/07/17 06:44:25;;;;;;;6.17;2.90;;;;;;;26.44;40.59;97810.78;5009960;28;20236;-71
2023/07/17 06:46:51;;;;;;;4.43;2.83;;;;;;;26.46;40.07;97813.22;5012101;28;20267;-69
2023/07/17 06:49:16;;;;;;;7.47;3.00;;;;;;;26.58;39.91;97810.47;5009458;28;20204;-70
2023/07/17 06:51:42;;;;;;;12.43;3.00;;;;;;;26.71;39.45;97812.84;5009594;28;20787;-70
2023/07/17 06:54:07;;;;;;;4.80;2.90;;;;;;;26.74;39.43;97809.66;5013515;28;20552;-69
2023/07/17 06:56:33;;;;;;;9.10;2.93;;;;;;;26.81;39.11;97810.38;5009384;28;20185;-69
2023/07/17 06:58:58;;;;;;;6.60;2.80;;;;;;;26.85;38.89;97815.25;5008578;28;20667;-70
2023/07/17 07:01:23;;;;;;;5.43;3.00;;;;;;;26.88;39.39;97809.38;5009134;28;20180;-69
2023/07/17 07:03:49;;;;;;;12.40;3.03;;;;;;;26.93;38.35;97812.16;5007999;28;20612;-70
2023/07/17 07:06:14;;;;;;;5.47;3.77;;;;;;;27.09;38.20;97814.03;5009164;28;20226;-69
2023/07/17 07:08:42;;;;;;;5.50;3.30;;;;;;;27.25;37.96;97808.88;5010630;28;20196;-71
2023/07/17 07:11:08;;;;;;;6.87;3.47;;;;;;;27.39;37.20;97796.72;5013453;28;20207;-69
2023/07/17 07:13:33;;;;;;;3.90;3.20;;;;;;;27.51;36.95;97803.91;5007792;28;20986;-72
2023/07/17 07:15:59;;;;;;;3.93;3.13;;;;;;;27.63;36.76;97798.44;5011733;28;20414;-69
2023/07/17 07:18:24;;;;;;;6.40;3.80;;;;;;;27.66;36.48;97804.13;5009243;28;20279;-72
2023/07/17 07:20:52;;;;;;;12.97;3.30;;;;;;;27.79;36.38;97807.50;5007984;28;20216;-70
2023/07/17 07:23:18;;;;;;;11.73;3.73;;;;;;;27.88;35.12;97808.69;5009688;28;20230;-72
2023/07/17 07:25:43;;;;;;;5.47;3.70;;;;;;;27.97;33.89;97812.59;5008097;28;20814;-73
2023/07/17 07:28:10;;;;;;;7.03;3.33;;;;;;;28.05;33.83;97804.06;5008441;28;20188;-70
2023/07/17 07:30:36;;;;;;;5.70;3.30;;;;;;;28.16;34.01;97804.22;5008484;28;20199;-76
2023/07/17 07:33:01;;;;;;;6.93;4.40;;;;;;;28.10;31.70;97797.16;5008410;28;20443;-69
2023/07/17 07:35:27;;;;;;;8.13;5.00;;;;;;;28.24;32.37;97808.34;5007452;28;20931;-69
2023/07/17 07:37:52;;;;;;;5.00;3.57;;;;;;;28.35;32.62;97810.88;5008310;28;20192;-73
2023/07/17 07:40:18;;;;;;;14.30;4.63;;;;;;;28.46;33.15;97816.41;5010261;28;20202;-71
2023/07/17 07:42:43;;;;;;;11.93;3.77;;;;;;;28.57;33.39;97812.75;5007359;28;20626;-70
2023/07/17 07:45:12;;;;;;;5.20;3.93;;;;;;;28.62;33.38;97809.28;5008764;28;20180;-69
2023/07/17 07:47:38;;;;;;;4.50;3.50;;;;;;;28.69;32.61;97809.88;5008966;28;20184;-70
2023/07/17 07:50:04;;;;;;;9.73;4.50;;;;;;;28.79;32.52;97804.63;5006822;28;20424;-70
2023/07/17 07:52:30;;;;;;;4.80;3.60;;;;;;;28.93;32.68;97810.38;5008198;28;20530;-68
2023/07/17 07:54:55;;;;;;;10.77;3.57;;;;;;;29.02;31.26;97808.03;5007318;28;20420;-71
2023/07/17 07:57:21;;;;;;;5.77;3.50;;;;;;;29.06;31.48;97813.72;5010914;28;20188;-71
2023/07/17 07:59:48;;;;;;;8.37;4.47;;;;;;;28.87;30.56;97816.78;5010973;28;20546;-70
2023/07/17 08:02:14;;;;;;;6.40;4.30;;;;;;;28.92;31.31;97810.66;5007858;28;20672;-71
2023/07/17 08:04:39;;;;;;;7.90;4.17;;;;;;;28.89;31.69;97813.84;5004162;28;20489;-70
2023/07/17 08:07:05;;;;;;;8.47;4.23;;;;;;;29.02;31.37;97812.59;5004147;28;20188;-71
2023/07/17 08:09:30;;;;;;;6.17;3.90;;;;;;;29.04;31.00;97810.47;5008353;28;20563;-71
2023/07/17 08:11:56;;;;;;;5.30;3.80;;;;;;;29.07;29.87;97826.13;5009334;28;20187;-72
2023/07/17 08:14:21;;;;;;;9.40;4.00;;;;;;;28.82;29.24;97819.47;5009471;28;20177;-70
2023/07/17 08:16:48;;;;;;;10.87;4.80;;;;;;;29.05;30.28;97812.09;5007595;28;20271;-71
2023/07/17 08:19:13;;;;;;;8.53;5.40;;;;;;;29.31;29.64;97814.97;5011759;28;20486;-70
2023/07/17 08:21:39;;;;;;;4.50;3.87;;;;;;;29.54;29.43;97811.91;5011472;28;20430;-70
2023/07/17 08:24:04;;;;;;;7.33;4.07;;;;;;;29.52;29.11;97824.84;5013374;28;20211;-73
2023/07/17 08:26:31;;;;;;;9.73;4.57;;;;;;;29.40;28.79;97816.13;5012099;28;20200;-71
2023/07/17 08:28:56;;;;;;;7.30;3.83;;;;;;;29.41;28.98;97824.00;5011718;28;20764;-71
2023/07/17 08:31:22;;;;;;;5.00;4.07;;;;;;;29.58;27.85;97815.72;5012079;28;20428;-72
2023/07/17 08:33:47;;;;;;;7.07;4.10;;;;;;;29.54;27.89;97820.00;5011255;28;20204;-70
2023/07/17 08:36:13;;;;;;;5.80;3.70;;;;;;;29.63;26.96;97823.03;5011656;28;20176;-69
2023/07/17 08:38:38;;;;;;;11.07;4.33;;;;;;;29.74;27.21;97823.88;5013040;28;20207;-71
2023/07/17 08:41:04;;;;;;;7.17;4.33;;;;;;;29.91;26.98;97818.31;5011056;28;20188;-70
2023/07/17 08:43:29;;;;;;;8.87;4.13;;;;;;;29.89;26.91;97821.25;5015552;28;20207;-72
2023/07/17 08:45:55;;;;;;;6.43;3.23;;;;;;;29.82;26.38;97815.31;5012278;28;20192;-70
2023/07/17 08:48:21;;;;;;;7.07;4.37;;;;;;;29.83;26.70;97816.09;5011742;28;20955;-71
2023/07/17 08:50:47;;;;;;;6.33;3.93;;;;;;;29.93;26.67;97816.13;5014695;28;20536;-69
2023/07/17 08:53:13;;;;;;;4.80;3.67;;;;;;;29.87;27.46;97826.09;5012896;28;20207;-70
2023/07/17 08:55:38;;;;;;;6.47;4.10;;;;;;;29.77;27.47;97826.06;5009683;28;20571;-69
2023/07/17 08:58:04;;;;;;;7.70;3.70;;;;;;;29.63;27.04;97835.72;5010963;28;20419;-71
2023/07/17 09:00:30;;;;;;;5.97;3.80;;;;;;;29.74;27.21;97826.59;5012616;28;20202;-71
2023/07/17 09:02:56;;;;;;;7.77;4.40;;;;;;;29.96;26.79;97825.66;5011763;28;20375;-69
2023/07/17 09:05:22;;;;;;;5.80;3.23;;;;;;;30.15;26.07;97826.78;5011412;28;20900;-71
2023/07/17 09:07:47;;;;;;;5.43;3.67;;;;;;;30.19;26.50;97824.38;5013322;28;20210;-71
2023/07/17 09:10:15;;;;;;;5.90;4.03;;;;;;;29.92;26.61;97825.34;5011560;28;20203;-70
2023/07/17 09:12:50;;;;;;;7.83;4.20;;;;;;;30.30;26.46;97819.81;5010014;28;20231;-73
2023/07/17 09:15:15;;;;;;;10.57;3.93;;;;;;;30.59;26.96;97824.78;5004907;28;20419;-71
2023/07/17 09:17:41;;;;;;;9.00;3.90;;;;;;;30.82;27.48;97819.94;5009988;28;20427;-72
2023/07/17 09:20:10;;;;;;;5.87;3.90;;;;;;;30.85;26.35;97819.41;5010921;28;20212;-71
2023/07/17 09:22:38;;;;;;;6.20;4.03;;;;;;;31.13;26.03;97830.81;5010975;28;20578;-72
2023/07/17 09:25:08;;;;;;;5.30;3.80;;;;;;;31.18;26.12;97823.50;5015186;28;20427;-70
2023/07/17 09:27:44;;;;;;;9.83;4.30;;;;;;;31.08;25.50;97815.31;5011914;28;20474;-70
2023/07/17 09:30:12;;;;;;;5.70;4.10;;;;;;;31.02;25.82;97819.13;5010367;28;20864;-70
2023/07/17 09:32:38;;;;;;;6.03;3.60;;;;;;;30.79;25.40;97811.28;5018042;28;20443;-73
2023/07/17 09:35:04;;;;;;;10.13;4.90;;;;;;;30.56;26.28;97817.19;5009349;28;20424;-71
2023/07/17 09:37:33;;;;;;;10.80;4.40;;;;;;;30.55;26.47;97808.28;5013750;28;20223;-70
2023/07/17 09:40:07;;;;;;;5.23;4.00;;;;;;;30.44;26.47;97804.72;5011230;28;20432;-71
2023/07/17 09:42:35;;;;;;;8.53;5.50;;;;;;;30.42;27.50;97809.56;5010607;28;20444;-71
2023/07/17 09:45:01;;;;;;;6.60;4.30;;;;;;;30.46;27.95;97804.44;5010360;28;20488;-69
2023/07/17 09:47:26;;;;;;;9.47;5.13;;;;;;;30.50;27.94;97810.94;5010654;28;21139;-71
2023/07/17 09:49:53;;;;;;;8.97;7.20;;;;;;;30.63;27.46;97806.91;5009941;28;20559;-71
2023/07/17 09:52:19;;;;;;;10.13;6.10;;;;;;;30.59;27.10;97806.66;5015562;28;20210;-70
2023/07/17 09:54:45;;;;;;;11.30;4.47;;;;;;;30.00;26.60;97819.47;5009758;28;20428;-70
2023/07/17 09:57:19;;;;;;;4.30;3.93;;;;;;;30.18;26.89;97818.16;5009965;28;20188;-71
2023/07/17 09:59:47;;;;;;;6.30;4.10;;;;;;;30.29;26.42;97812.78;5009662;28;20486;-69
2023/07/17 10:02:17;;;;;;;5.37;3.70;;;;;;;30.21;26.44;97821.41;5009417;28;20438;-71
2023/07/17 10:04:48;;;;;;;4.67;3.67;;;;;;;30.13;26.70;97820.03;5009982;28;20842;-69
2023/07/17 10:07:13;;;;;;;6.60;3.77;;;;;;;30.10;26.61;97816.00;5008313;28;20419;-71
2023/07/17 10:09:40;;;;;;;4.90;3.63;;;;;;;30.30;27.15;97817.13;5010317;28;21158;-69
2023/07/17 10:12:07;;;;;;;6.50;3.63;;;;;;;30.37;27.01;97817.66;5011609;28;20259;-69
2023/07/17 10:14:33;;;;;;;6.20;4.43;;;;;;;30.24;26.73;97823.59;5024430;28;20489;-69
2023/07/17 10:16:58;;;;;;;10.17;4.57;;;;;;;30.09;26.91;97819.75;5008215;28;20431;-71
2023/07/17 10:19:43;;;;;;;7.03;4.10;;;;;;;29.85;27.14;97811.25;5009829;28;20259;-72
2023/07/17 10:22:13;;;;;;;7.73;4.27;;;;;;;29.72;26.67;97810.66;5008034;28;20200;-68
2023/07/17 10:24:40;;;;;;;5.80;4.00;;;;;;;30.11;27.21;97798.69;5008321;28;20645;-68
2023/07/17 10:27:05;;;;;;;5.53;4.00;;;;;;;30.23;26.72;97798.44;5009972;28;20982;-70
2023/07/17 10:29:31;;;;;;;8.83;4.20;;;;;;;30.46;26.22;97790.91;5007635;28;20425;-70
2023/07/17 10:31:58;;;;;;;5.83;3.67;;;;;;;30.50;26.01;97781.19;5008798;28;20392;-68
2023/07/17 10:34:50;;;;;;;6.70;5.00;;;;;;;30.87;26.39;97796.41;5009068;28;20930;-70
2023/07/17 10:37:39;;;;;;;7.63;4.47;;;;;;;31.32;25.58;97796.66;5011950;28;20451;-71
2023/07/17 10:40:06;;;;;;;5.30;4.27;;;;;;;31.68;25.01;97788.44;5007254;28;20424;-69
2023/07/17 10:42:32;;;;;;;9.67;4.30;;;;;;;31.93;24.86;97786.75;5010617;28;20455;-70
2023/07/17 10:45:18;;;;;;;5.90;4.30;;;;;;;32.20;25.28;97788.25;5011486;28;20411;-69
2023/07/17 10:47:49;;;;;;;4.90;3.63;;;;;;;32.43;24.85;97775.94;5008963;28;20453;-70
2023/07/17 10:50:17;;;;;;;7.77;5.10;;;;;;;32.61;24.55;97770.91;5012130;28;20411;-70
2023/07/17 10:52:42;;;;;;;5.53;3.70;;;;;;;32.73;23.92;97771.34;5008690;28;20443;-69
2023/07/17 10:55:08;;;;;;;5.73;4.30;;;;;;;32.85;24.14;97768.31;5008369;28;20436;-72
2023/07/17 10:57:33;;;;;;;6.30;4.43;;;;;;;33.02;23.55;97764.34;5008891;28;20180;-72
2023/07/17 10:59:59;;;;;;;5.67;3.93;;;;;;;33.11;23.40;97764.53;5006573;28;20278;-68
2023/07/17 11:02:28;;;;;;;4.83;3.70;;;;;;;33.19;23.54;97775.59;5008866;28;20216;-69
2023/07/17 11:04:58;;;;;;;5.13;3.87;;;;;;;32.96;23.39;97769.00;5009282;28;20177;-69
2023/07/17 11:07:24;;;;;;;4.80;3.53;;;;;;;32.73;22.88;97767.84;5008749;28;20423;-70
2023/07/17 11:09:49;;;;;;;3.50;3.20;;;;;;;32.89;23.01;97763.13;5011224;28;20428;-69
2023/07/17 11:12:16;;;;;;;5.30;3.87;;;;;;;32.59;23.30;97776.63;5008313;28;20442;-69
2023/07/17 11:14:42;;;;;;;6.93;4.07;;;;;;;32.74;23.15;97772.97;5007445;28;20180;-68
2023/07/17 11:17:09;;;;;;;4.97;4.47;;;;;;;32.55;23.57;97777.47;5007941;28;20511;-68
2023/07/17 11:19:35;;;;;;;6.03;4.73;;;;;;;32.57;23.94;97773.38;5012438;28;20633;-68
2023/07/17 11:22:00;;;;;;;5.43;4.07;;;;;;;32.60;23.89;97761.97;5008832;28;20506;-71
2023/07/17 11:24:26;;;;;;;4.70;3.63;;;;;;;32.57;24.15;97767.97;5008025;28;20863;-72
2023/07/17 11:26:53;;;;;;;6.83;3.87;;;;;;;32.58;23.49;97771.47;5006876;28;20184;-70